Terminal Aerodrome Forecast
Issued by NWS

Home | Current Version | Previous Version | Graphics & Text | Print | Product List | Glossary Off
Versions: 1 2 3 4 5 6 7 8 9 10 11 12 13

000
FTUS41 KCLE 270533
TAFFDY
TAF
KFDY 270533Z 2706/2806 27008KT P6SM SCT100
      TEMPO 2706/2710 SCT008 BKN015
     FM271000 29012KT P6SM SCT025 BKN050
     FM272100 27010KT P6SM SCT050=

USA.gov is the U.S. government's official web portal to all federal, state and local government web resources and services.